Saint Louis, MO (63123)

11:59 AM CST on February 08, 2016 (GMT -0600)
Affton | | Change Station
CLOSE
Current Station
Personal Weather Station
Location: Affton, MO
Elevation: 531 ft
Nearby Weather Stations

Elev 531 ft 38.55 °N, 90.32 °W | Updated 25 minutes ago

Overcast
Overcast
29.5 °F
Feels Like 23 °F
N
5.8
Wind Variable Wind from SSW

Today
High -- | Low -- °F
--% Chance of Precip.
Yesterday
High -- | Low -- °F
Precip. -- in
Pressure 29.90 in
Visibility 9.0 miles
Clouds Mostly Cloudy 3700 ft
Overcast 6500 ft
Windchill 23 °F
Dew Point 18 °F
Humidity 62%
Rainfall 0.00 in
Snow Depth Not available.
7:00 AM 5:30 PM
New Moon, 0% visible
METAR KSTL 081751Z 31020G26KT 9SM -SN BKN037 OVC065 M01/M10 A2988 RMK AO2 PK WND 28031/1654 SLP125 P0000 60000 T10111100 10017 21022 51009
Pressure 29.90 in
Visibility 9.0 miles
Clouds Mostly Cloudy 3700 ft
Overcast 6500 ft
Windchill 23 °F
Dew Point 18 °F
Humidity 62%
Rainfall 0.00 in
Snow Depth Not available.
7:00 AM 5:30 PM
New Moon, 0% visible
METAR KSTL 081751Z 31020G26KT 9SM -SN BKN037 OVC065 M01/M10 A2988 RMK AO2 PK WND 28031/1654 SLP125 P0000 60000 T10111100 10017 21022 51009

10-Day Weather Forecast

Almanac

Astronomy

Feb. 08, 2016 Rise Set
Actual Time
Civil Twilight
Nautical Twilight
Astronomical Twilight
Moon
Length of Visible Light
Length of Day
Tomorrow will be .
, % of the Moon is Illuminated

Today's Extremes

State Highs State Lows

Community

WunderPhotos

Upload Photos

1,891,476 photos uploaded!

WunderBlog® & News

Nearby

Air Quality

  Air Quality AQ Index Pollutant
Not available.

Snow Depth

Station Depth Elevation

Earthquake Activity

City Distance Mag. Time & Date
Minimum magnitude displayed is 2.5.

Coastal Water Temperatures

Place Temperature

Stations

Nearby Weather Stations

Station Location Temp. Windchill Dew Point Humidity Wind Precip. Elev Updated Type
                   

Watches & Warnings

There are currently no watches in effect.